createdAt,value
2023-04-16T00:00:31.314Z,171.39
2023-04-16T00:01:31.374Z,172.64
2023-04-16T00:02:31.527Z,172.24
2023-04-16T00:03:31.676Z,173.56
2023-04-16T00:04:31.522Z,175.03
2023-04-16T00:05:31.530Z,173.90
2023-04-16T00:06:31.569Z,171.57
2023-04-16T00:07:31.602Z,171.01
2023-04-16T00:08:31.632Z,171.07
2023-04-16T00:09:31.660Z,171.88
2023-04-16T00:10:31.704Z,169.82
2023-04-16T00:11:31.742Z,166.77
2023-04-16T00:12:31.744Z,163.94
2023-04-16T00:13:31.788Z,163.91
2023-04-16T00:14:31.825Z,164.32
2023-04-16T00:15:31.862Z,165.63
2023-04-16T00:16:31.954Z,168.44
2023-04-16T00:17:31.992Z,171.18
2023-04-16T00:18:32.038Z,172.91
2023-04-16T00:19:32.030Z,175.93
2023-04-16T00:20:32.068Z,177.39
2023-04-16T00:21:32.108Z,175.34
2023-04-16T00:22:32.143Z,176.56
2023-04-16T00:23:32.166Z,177.88
2023-04-16T00:24:32.181Z,175.36
2023-04-16T00:25:32.216Z,174.32
2023-04-16T00:26:32.251Z,173.90
2023-04-16T00:27:32.304Z,173.18
2023-04-16T00:28:32.312Z,170.30
2023-04-16T00:29:32.338Z,166.82
2023-04-16T00:30:32.358Z,165.71
2023-04-16T00:31:32.428Z,169.55
2023-04-16T00:32:32.453Z,170.42
2023-04-16T00:33:32.457Z,169.98
2023-04-16T00:34:32.528Z,169.98
2023-04-16T00:35:32.523Z,170.79
2023-04-16T00:36:32.538Z,173.47
2023-04-16T00:37:32.580Z,172.25
2023-04-16T00:38:32.646Z,169.62
2023-04-16T00:39:32.642Z,170.06
2023-04-16T00:40:32.680Z,172.03
2023-04-16T00:41:32.713Z,172.93
2023-04-16T00:42:32.745Z,172.96
2023-04-16T00:43:32.759Z,173.49
2023-04-16T00:44:32.787Z,175.32
2023-04-16T00:45:32.822Z,177.54
2023-04-16T00:46:32.884Z,176.29
2023-04-16T00:47:32.928Z,174.28
2023-04-16T00:48:32.934Z,172.32
2023-04-16T00:49:32.988Z,173.22
2023-04-16T00:50:32.996Z,172.43
2023-04-16T00:51:33.043Z,171.46
2023-04-16T00:52:33.064Z,171.58
2023-04-16T00:53:33.076Z,171.94
2023-04-16T00:54:33.129Z,169.77
2023-04-16T00:55:33.214Z,167.75
2023-04-16T00:56:33.287Z,168.84
2023-04-16T00:57:33.350Z,168.15
2023-04-16T00:58:33.408Z,166.95
2023-04-16T00:59:33.472Z,167.34
2023-04-16T01:00:33.532Z,167.74
2023-04-16T01:01:33.690Z,167.00
2023-04-16T01:02:33.923Z,163.63
2023-04-16T01:03:33.992Z,163.05
2023-04-16T01:04:33.900Z,163.69
2023-04-16T01:05:33.971Z,164.39
2023-04-16T01:06:34.087Z,162.57
2023-04-16T01:07:34.172Z,158.87
2023-04-16T01:08:34.268Z,155.73
2023-04-16T01:09:34.334Z,154.08
2023-04-16T01:10:34.417Z,155.32
2023-04-16T01:11:34.519Z,155.82
2023-04-16T01:12:34.687Z,158.33
2023-04-16T01:13:34.865Z,160.49
2023-04-16T01:14:34.724Z,159.46
2023-04-16T01:15:34.857Z,160.08
2023-04-16T01:16:34.960Z,157.98
2023-04-16T01:17:35.099Z,159.67
2023-04-16T01:18:35.120Z,162.41
2023-04-16T01:19:35.232Z,164.01
2023-04-16T01:20:35.327Z,165.56
2023-04-16T01:21:35.403Z,164.75
2023-04-16T01:22:35.498Z,166.39
2023-04-16T01:23:35.573Z,169.13
2023-04-16T01:24:35.691Z,170.36
2023-04-16T01:25:35.773Z,168.00
2023-04-16T01:26:35.854Z,166.07
2023-04-16T01:27:35.956Z,162.71
2023-04-16T01:28:36.049Z,162.04
2023-04-16T01:29:36.113Z,163.08
2023-04-16T01:30:36.174Z,164.07
2023-04-16T01:31:36.288Z,160.46
2023-04-16T01:32:36.389Z,159.25
2023-04-16T01:33:36.437Z,158.14
2023-04-16T01:34:36.632Z,154.59
2023-04-16T01:35:36.653Z,153.15
2023-04-16T01:36:36.719Z,151.80
2023-04-16T01:37:36.821Z,153.04
2023-04-16T01:38:36.889Z,154.50
2023-04-16T01:39:36.996Z,157.41
2023-04-16T01:40:37.063Z,161.02
2023-04-16T01:41:37.139Z,162.81
2023-04-16T01:42:37.739Z,161.79
2023-04-16T01:43:40.084Z,163.59
2023-04-16T01:44:37.423Z,164.81
2023-04-16T01:45:37.456Z,166.46
2023-04-16T01:46:37.509Z,166.96
2023-04-16T01:47:37.579Z,168.22
2023-04-16T01:48:37.541Z,168.91
2023-04-16T01:49:37.578Z,167.21
2023-04-16T01:50:37.650Z,164.99
2023-04-16T01:51:37.661Z,163.97
2023-04-16T01:52:37.725Z,164.55
2023-04-16T01:53:37.743Z,164.13
2023-04-16T01:54:37.776Z,164.53
2023-04-16T01:55:37.813Z,167.24
2023-04-16T01:56:37.847Z,169.42
2023-04-16T01:57:37.911Z,171.58
2023-04-16T01:58:37.965Z,168.89
2023-04-16T01:59:37.951Z,168.98
2023-04-16T02:00:38.054Z,172.25
2023-04-16T02:01:38.050Z,175.19
2023-04-16T02:02:38.196Z,175.17
2023-04-16T02:03:38.222Z,171.45
2023-04-16T02:04:38.134Z,169.59
2023-04-16T02:05:38.168Z,175.42
2023-04-16T02:06:38.202Z,182.45
2023-04-16T02:07:38.243Z,189.08
2023-04-16T02:08:38.279Z,192.88
2023-04-16T02:09:38.299Z,194.42
2023-04-16T02:10:38.355Z,194.67
2023-04-16T02:11:38.380Z,195.84
2023-04-16T02:12:38.418Z,195.93
2023-04-16T02:13:38.506Z,197.61
2023-04-16T02:14:38.521Z,198.52
2023-04-16T02:15:38.565Z,198.38
2023-04-16T02:16:39.278Z,196.44
2023-04-16T02:17:38.646Z,196.32
2023-04-16T02:18:38.644Z,193.95
2023-04-16T02:19:38.685Z,187.95
2023-04-16T02:20:38.736Z,186.62
2023-04-16T02:21:38.783Z,188.58
2023-04-16T02:22:38.844Z,193.59
2023-04-16T02:23:38.869Z,197.04
2023-04-16T02:24:38.912Z,194.87
2023-04-16T02:25:38.954Z,193.62
2023-04-16T02:26:39.018Z,193.68
2023-04-16T02:27:39.088Z,188.92
2023-04-16T02:28:39.119Z,185.97
2023-04-16T02:29:39.157Z,187.22
2023-04-16T02:30:39.203Z,187.49
2023-04-16T02:31:39.318Z,187.88
2023-04-16T02:32:39.355Z,187.97
2023-04-16T02:33:39.333Z,189.26
2023-04-16T02:34:39.404Z,189.07
2023-04-16T02:35:39.450Z,186.04
2023-04-16T02:36:39.485Z,183.44
2023-04-16T02:37:39.531Z,183.28
2023-04-16T02:38:39.559Z,184.16
2023-04-16T02:39:39.625Z,185.41
2023-04-16T02:40:39.661Z,186.02
2023-04-16T02:41:39.713Z,188.77
2023-04-16T02:42:39.761Z,193.11
2023-04-16T02:43:40.238Z,192.21
2023-04-16T02:44:39.872Z,189.98
2023-04-16T02:45:39.944Z,188.75
2023-04-16T02:46:39.939Z,188.06
2023-04-16T02:47:40.036Z,188.71
2023-04-16T02:48:40.062Z,187.21
2023-04-16T02:49:40.106Z,185.72
2023-04-16T02:50:40.216Z,185.99
2023-04-16T02:51:40.282Z,186.60
2023-04-16T02:52:40.339Z,188.39
2023-04-16T02:53:40.392Z,192.03
2023-04-16T02:54:40.460Z,196.74
2023-04-16T02:55:40.563Z,199.72
2023-04-16T02:56:40.638Z,202.18
2023-04-16T02:57:40.704Z,205.07
2023-04-16T02:58:40.778Z,208.89
2023-04-16T02:59:40.874Z,212.70
2023-04-16T03:00:40.951Z,216.53
2023-04-16T03:01:40.993Z,217.92
2023-04-16T03:02:41.184Z,218.39
2023-04-16T03:03:41.194Z,218.98
2023-04-16T03:04:41.517Z,217.97
2023-04-16T03:05:41.384Z,214.90
2023-04-16T03:06:41.466Z,217.42
2023-04-16T03:07:41.530Z,220.68
2023-04-16T03:08:41.596Z,224.44
2023-04-16T03:09:41.653Z,226.02
2023-04-16T03:10:41.721Z,227.81
2023-04-16T03:11:41.774Z,228.37
2023-04-16T03:12:41.788Z,229.38
2023-04-16T03:13:41.821Z,229.86
2023-04-16T03:14:41.895Z,229.58
2023-04-16T03:15:41.957Z,228.17
2023-04-16T03:16:41.995Z,226.44
2023-04-16T03:17:42.086Z,226.74
2023-04-16T03:18:42.133Z,227.37
2023-04-16T03:19:42.205Z,231.93
2023-04-16T03:20:42.297Z,236.92
2023-04-16T03:21:42.283Z,240.67
2023-04-16T03:22:42.313Z,243.52
2023-04-16T03:23:42.478Z,248.58
2023-04-16T03:24:42.417Z,247.95
2023-04-16T03:25:42.494Z,245.05
2023-04-16T03:26:42.614Z,243.56
2023-04-16T03:27:42.649Z,242.82
2023-04-16T03:28:42.737Z,243.96
2023-04-16T03:29:42.809Z,244.62
2023-04-16T03:30:42.859Z,243.02
2023-04-16T03:31:43.051Z,243.58
2023-04-16T03:32:43.066Z,240.72
2023-04-16T03:33:43.082Z,240.08
2023-04-16T03:34:43.157Z,241.48
2023-04-16T03:35:43.231Z,228.08
2023-04-16T03:36:43.311Z,217.27
2023-04-16T03:37:43.361Z,212.83
2023-04-16T03:38:43.439Z,214.54
2023-04-16T03:39:43.549Z,219.28
2023-04-16T03:40:43.738Z,218.59
2023-04-16T03:41:43.723Z,215.64
2023-04-16T03:42:43.784Z,214.19
2023-04-16T03:43:43.890Z,216.93
2023-04-16T03:44:44.016Z,221.46
2023-04-16T03:45:44.171Z,223.06
2023-04-16T03:46:44.170Z,223.13
2023-04-16T03:47:44.262Z,223.79
2023-04-16T03:48:44.241Z,225.96
2023-04-16T03:49:44.300Z,227.46
2023-04-16T03:50:44.302Z,227.33
2023-04-16T03:51:44.345Z,223.90
2023-04-16T03:52:44.376Z,221.00
2023-04-16T03:53:44.423Z,219.72
2023-04-16T03:54:44.455Z,219.19
2023-04-16T03:55:44.547Z,217.67
2023-04-16T03:56:44.638Z,213.67
2023-04-16T03:57:44.765Z,214.80
2023-04-16T03:58:45.276Z,216.81
2023-04-16T03:59:45.825Z,218.92
2023-04-16T04:00:45.069Z,221.44
2023-04-16T04:01:45.097Z,224.01
2023-04-16T04:02:46.029Z,230.08
2023-04-16T04:03:45.387Z,232.89
2023-04-16T04:04:45.268Z,234.43
2023-04-16T04:05:45.254Z,233.14
2023-04-16T04:06:45.324Z,231.44
2023-04-16T04:07:45.402Z,230.33
2023-04-16T04:08:45.469Z,229.19
2023-04-16T04:09:45.536Z,227.10
2023-04-16T04:10:45.603Z,225.58
2023-04-16T04:11:45.672Z,225.49
2023-04-16T04:12:45.754Z,224.19
2023-04-16T04:13:45.786Z,223.27
2023-04-16T04:14:45.868Z,227.21
2023-04-16T04:15:45.964Z,232.72
2023-04-16T04:16:46.136Z,237.77
2023-04-16T04:17:46.201Z,240.96
2023-04-16T04:18:46.190Z,239.82
2023-04-16T04:19:59.895Z,239.35
2023-04-16T04:20:47.298Z,238.05
2023-04-16T04:21:46.333Z,237.79
2023-04-16T04:22:46.375Z,239.46
2023-04-16T04:23:46.417Z,241.08
2023-04-16T04:24:46.442Z,244.96
2023-04-16T04:25:46.475Z,247.39
2023-04-16T04:26:46.550Z,248.38
2023-04-16T04:27:46.577Z,249.66
2023-04-16T04:28:46.620Z,248.46
2023-04-16T04:29:46.620Z,247.26
2023-04-16T04:30:46.799Z,247.68
2023-04-16T04:31:46.794Z,246.42
2023-04-16T04:32:46.816Z,246.79
2023-04-16T04:33:46.868Z,247.05
2023-04-16T04:34:46.980Z,247.31
2023-04-16T04:35:47.071Z,247.07
2023-04-16T04:36:47.156Z,247.13
2023-04-16T04:37:47.228Z,248.97
2023-04-16T04:38:47.317Z,249.63
2023-04-16T04:39:47.385Z,249.50
2023-04-16T04:40:47.422Z,250.68
2023-04-16T04:41:47.517Z,253.75
2023-04-16T04:42:47.616Z,253.54
2023-04-16T04:43:47.714Z,249.43
2023-04-16T04:44:47.871Z,239.30
2023-04-16T04:45:47.947Z,230.95
2023-04-16T04:46:48.014Z,231.69
2023-04-16T04:47:48.102Z,232.08
2023-04-16T04:48:48.257Z,232.87
2023-04-16T04:49:48.347Z,223.09
2023-04-16T04:50:48.415Z,218.09
2023-04-16T04:51:48.507Z,215.71
2023-04-16T04:52:48.593Z,210.13
2023-04-16T04:53:48.703Z,206.79
2023-04-16T04:54:48.798Z,203.98
2023-04-16T04:55:52.285Z,204.16
2023-04-16T04:56:50.101Z,204.21
2023-04-16T04:57:48.963Z,204.82
2023-04-16T04:58:49.124Z,207.37
2023-04-16T04:59:49.074Z,211.97
2023-04-16T05:00:49.179Z,215.48
2023-04-16T05:01:49.234Z,215.62
2023-04-16T05:02:49.301Z,217.31
2023-04-16T05:03:49.438Z,219.54
2023-04-16T05:04:49.368Z,218.52
2023-04-16T05:05:49.346Z,219.86
2023-04-16T05:06:49.400Z,222.37
2023-04-16T05:07:49.455Z,226.33
2023-04-16T05:08:49.566Z,229.97
2023-04-16T05:09:49.775Z,234.15
2023-04-16T05:10:49.764Z,236.15
2023-04-16T05:11:49.948Z,239.04
2023-04-16T05:12:49.990Z,239.15
2023-04-16T05:13:49.993Z,239.81
2023-04-16T05:14:50.023Z,241.22
2023-04-16T05:15:50.784Z,245.23
2023-04-16T05:16:50.801Z,239.33
2023-04-16T05:17:50.120Z,240.10
2023-04-16T05:18:50.150Z,240.78
2023-04-16T05:19:50.156Z,239.55
2023-04-16T05:20:50.274Z,238.38
2023-04-16T05:21:50.312Z,238.37
2023-04-16T05:22:51.271Z,239.69
2023-04-16T05:23:50.368Z,243.00
2023-04-16T05:24:50.401Z,246.43
2023-04-16T05:25:50.645Z,246.52
2023-04-16T05:26:50.521Z,246.70
2023-04-16T05:27:50.571Z,246.94
2023-04-16T05:28:51.308Z,246.71
2023-04-16T05:29:50.780Z,243.53
2023-04-16T05:30:50.680Z,241.86
2023-04-16T05:31:50.687Z,242.14
2023-04-16T05:32:50.750Z,240.79
2023-04-16T05:33:50.782Z,241.68
2023-04-16T05:34:50.809Z,244.59
2023-04-16T05:35:50.826Z,247.49
2023-04-16T05:36:50.881Z,250.74
2023-04-16T05:37:50.929Z,254.26
2023-04-16T05:38:50.962Z,259.16
2023-04-16T05:39:50.993Z,267.59
2023-04-16T05:40:51.027Z,275.94
2023-04-16T05:41:51.061Z,276.25
2023-04-16T05:42:51.098Z,275.56
2023-04-16T05:43:51.129Z,278.34
2023-04-16T05:44:51.199Z,282.76
2023-04-16T05:45:51.290Z,283.03
2023-04-16T05:46:51.314Z,279.72
2023-04-16T05:47:51.427Z,278.93
2023-04-16T05:48:51.414Z,278.07
2023-04-16T05:49:51.468Z,277.30
2023-04-16T05:50:51.549Z,280.11
2023-04-16T05:51:51.599Z,282.55
2023-04-16T05:52:51.686Z,280.06
2023-04-16T05:53:51.758Z,276.87
2023-04-16T05:54:51.832Z,274.80
2023-04-16T05:55:51.914Z,273.65
2023-04-16T05:56:51.999Z,271.35
2023-04-16T05:57:52.068Z,264.83
2023-04-16T05:58:52.146Z,258.40
2023-04-16T05:59:52.246Z,256.26
2023-04-16T06:00:52.338Z,256.84
2023-04-16T06:01:52.489Z,256.92
2023-04-16T06:02:52.599Z,255.01
2023-04-16T06:03:52.614Z,251.26
2023-04-16T06:04:52.675Z,246.39
2023-04-16T06:05:52.827Z,242.74
2023-04-16T06:06:52.823Z,239.26
2023-04-16T06:07:52.887Z,234.14
2023-04-16T06:08:52.974Z,229.31
2023-04-16T06:09:53.043Z,226.90
2023-04-16T06:10:53.120Z,228.37
2023-04-16T06:11:53.180Z,229.09
2023-04-16T06:12:53.314Z,225.22
2023-04-16T06:13:53.347Z,225.56
2023-04-16T06:14:53.439Z,222.29
2023-04-16T06:15:53.523Z,219.23
2023-04-16T06:16:53.587Z,218.73
2023-04-16T06:17:53.723Z,220.97
2023-04-16T06:18:53.713Z,216.65
2023-04-16T06:19:53.806Z,213.14
2023-04-16T06:20:53.862Z,211.30
2023-04-16T06:21:53.928Z,208.74
2023-04-16T06:22:53.994Z,207.63
2023-04-16T06:23:54.064Z,207.04
2023-04-16T06:24:54.173Z,205.60
2023-04-16T06:25:54.218Z,204.25
2023-04-16T06:26:54.289Z,202.96
2023-04-16T06:27:54.387Z,201.89
2023-04-16T06:28:54.458Z,202.49
2023-04-16T06:29:54.556Z,203.16
2023-04-16T06:30:54.597Z,202.88
2023-04-16T06:31:54.676Z,204.55
2023-04-16T06:32:54.744Z,206.55
2023-04-16T06:33:54.842Z,205.95
2023-04-16T06:34:55.280Z,203.94
2023-04-16T06:35:54.906Z,202.22
2023-04-16T06:36:54.950Z,198.40
2023-04-16T06:37:55.002Z,196.12
2023-04-16T06:38:55.152Z,194.49
2023-04-16T06:39:55.791Z,196.40
2023-04-16T06:40:55.225Z,199.39
2023-04-16T06:41:55.320Z,201.43
2023-04-16T06:42:55.429Z,197.48
2023-04-16T06:43:55.468Z,192.49
2023-04-16T06:44:55.541Z,189.51
2023-04-16T06:45:55.606Z,191.67
2023-04-16T06:46:55.721Z,190.78
2023-04-16T06:47:55.789Z,182.72
2023-04-16T06:48:55.823Z,179.61
2023-04-16T06:49:55.896Z,179.25
2023-04-16T06:50:55.989Z,180.04
2023-04-16T06:51:56.059Z,177.93
2023-04-16T06:52:56.129Z,175.95
2023-04-16T06:53:56.197Z,174.80
2023-04-16T06:54:56.369Z,170.76
2023-04-16T06:55:56.345Z,170.30
2023-04-16T06:56:56.367Z,169.72
2023-04-16T06:57:56.437Z,167.09
2023-04-16T06:58:56.487Z,165.21
2023-04-16T06:59:56.589Z,164.05
2023-04-16T07:00:56.719Z,162.50
2023-04-16T07:01:56.791Z,162.01
2023-04-16T07:02:58.508Z,160.63
2023-04-16T07:03:57.050Z,161.77
2023-04-16T07:04:56.934Z,163.52
2023-04-16T07:05:56.975Z,159.02
2023-04-16T07:06:57.085Z,156.48
2023-04-16T07:07:57.056Z,156.49
2023-04-16T07:08:57.090Z,156.66
2023-04-16T07:09:57.088Z,156.71
2023-04-16T07:10:57.123Z,156.46
2023-04-16T07:11:57.148Z,154.34
2023-04-16T07:12:57.238Z,155.23
2023-04-16T07:13:57.214Z,153.56
2023-04-16T07:14:57.214Z,154.45
2023-04-16T07:15:57.233Z,153.62
2023-04-16T07:16:57.269Z,156.92
2023-04-16T07:17:57.425Z,162.58
2023-04-16T07:18:57.284Z,163.83
2023-04-16T07:19:57.369Z,161.12
2023-04-16T07:20:57.329Z,160.71
2023-04-16T07:21:57.346Z,162.93
2023-04-16T07:22:57.339Z,162.37
2023-04-16T07:23:57.334Z,156.62
2023-04-16T07:24:57.345Z,151.03
2023-04-16T07:25:57.371Z,148.12
2023-04-16T07:26:57.388Z,153.97
2023-04-16T07:27:57.446Z,153.49
2023-04-16T07:28:57.521Z,156.68
2023-04-16T07:29:57.587Z,157.65
2023-04-16T07:30:57.697Z,155.23
2023-04-16T07:31:57.738Z,151.49
2023-04-16T07:32:57.771Z,149.83
2023-04-16T07:33:57.848Z,150.41
2023-04-16T07:34:57.930Z,146.49
2023-04-16T07:35:57.995Z,146.90
2023-04-16T07:36:58.034Z,148.28
2023-04-16T07:37:58.113Z,150.86
2023-04-16T07:38:58.177Z,150.60
2023-04-16T07:39:58.252Z,150.72
2023-04-16T07:40:58.319Z,150.63
2023-04-16T07:41:58.367Z,149.66
2023-04-16T07:42:58.424Z,150.52
2023-04-16T07:43:58.493Z,147.86
2023-04-16T07:44:58.600Z,149.17
2023-04-16T07:45:58.648Z,148.79
2023-04-16T07:46:58.725Z,147.38
2023-04-16T07:47:59.343Z,143.05
2023-04-16T07:48:58.777Z,139.76
2023-04-16T07:49:58.858Z,139.43
2023-04-16T07:50:58.908Z,138.00
2023-04-16T07:51:58.894Z,136.83
2023-04-16T07:52:59.772Z,133.87
2023-04-16T07:53:58.986Z,128.74
2023-04-16T07:54:59.043Z,127.38
2023-04-16T07:55:59.096Z,130.12
2023-04-16T07:56:59.173Z,131.94
2023-04-16T07:57:59.225Z,134.46
2023-04-16T07:59:07.887Z,132.42
2023-04-16T08:00:00.336Z,132.13
2023-04-16T08:00:59.382Z,132.57
2023-04-16T08:01:59.528Z,133.86
2023-04-16T08:02:59.522Z,135.73
2023-04-16T08:03:59.607Z,136.77
2023-04-16T08:04:59.636Z,135.19
2023-04-16T08:05:59.517Z,132.87
2023-04-16T08:07:00.286Z,128.37
2023-04-16T08:07:59.564Z,129.54
2023-04-16T08:08:59.564Z,130.33
2023-04-16T08:09:59.599Z,128.71
2023-04-16T08:10:59.624Z,126.69
2023-04-16T08:11:59.628Z,127.15
2023-04-16T08:12:59.647Z,125.38
2023-04-16T08:13:59.665Z,129.52
2023-04-16T08:14:59.669Z,130.37
2023-04-16T08:15:59.769Z,130.33
2023-04-16T08:16:59.791Z,131.48
2023-04-16T08:17:59.922Z,129.38
2023-04-16T08:18:59.936Z,126.20
2023-04-16T08:20:00.000Z,121.54
2023-04-16T08:21:00.136Z,121.52
2023-04-16T08:22:00.160Z,123.61
2023-04-16T08:23:00.168Z,126.17
2023-04-16T08:24:00.242Z,127.04
2023-04-16T08:25:00.292Z,127.00
2023-04-16T08:26:00.345Z,127.85
2023-04-16T08:27:15.123Z,131.08
2023-04-16T08:28:01.428Z,131.23
2023-04-16T08:29:00.438Z,131.45
2023-04-16T08:30:00.458Z,130.61
2023-04-16T08:31:00.515Z,130.24
2023-04-16T08:32:00.483Z,130.60
2023-04-16T08:33:00.537Z,126.38
2023-04-16T08:34:00.522Z,128.65
2023-04-16T08:35:00.541Z,134.36
2023-04-16T08:36:00.587Z,138.49
2023-04-16T08:37:00.587Z,139.50
2023-04-16T08:38:02.276Z,139.99
2023-04-16T08:39:01.286Z,138.59
2023-04-16T08:40:00.676Z,136.91
2023-04-16T08:41:00.715Z,136.83
2023-04-16T08:42:00.804Z,135.70
2023-04-16T08:43:00.841Z,134.66
2023-04-16T08:44:00.891Z,133.72
2023-04-16T08:45:00.946Z,132.60
2023-04-16T08:46:00.990Z,129.56
2023-04-16T08:47:01.077Z,131.57
2023-04-16T08:48:01.167Z,130.42
2023-04-16T08:49:01.207Z,131.66
2023-04-16T08:50:01.314Z,133.49
2023-04-16T08:51:01.441Z,134.86
2023-04-16T08:52:01.487Z,138.23
2023-04-16T08:53:01.582Z,140.23
2023-04-16T08:54:01.572Z,140.90
2023-04-16T08:55:01.653Z,140.30
2023-04-16T08:56:01.835Z,139.06
2023-04-16T08:57:01.917Z,138.51
2023-04-16T08:58:01.893Z,136.13
2023-04-16T08:59:02.061Z,133.63
2023-04-16T09:00:02.023Z,133.76
2023-04-16T09:01:02.024Z,134.26
2023-04-16T09:02:02.180Z,134.09
2023-04-16T09:03:02.325Z,134.03
2023-04-16T09:04:02.362Z,137.24
2023-04-16T09:05:02.322Z,137.73
2023-04-16T09:06:02.270Z,133.50
2023-04-16T09:07:02.335Z,134.15
2023-04-16T09:08:02.377Z,129.22
2023-04-16T09:09:02.426Z,126.19
2023-04-16T09:10:02.489Z,132.15
2023-04-16T09:11:02.525Z,127.37
2023-04-16T09:12:02.591Z,124.36
2023-04-16T09:13:02.658Z,124.08
2023-04-16T09:14:02.737Z,125.18
2023-04-16T09:15:02.795Z,128.45
2023-04-16T09:16:02.867Z,132.46
2023-04-16T09:17:02.854Z,139.04
2023-04-16T09:18:02.913Z,140.20
2023-04-16T09:19:02.912Z,141.71
2023-04-16T09:20:02.983Z,138.31
2023-04-16T09:21:03.063Z,135.20
2023-04-16T09:22:03.085Z,130.00
2023-04-16T09:23:03.159Z,131.28
2023-04-16T09:24:03.196Z,131.96
2023-04-16T09:25:03.248Z,135.68
2023-04-16T09:26:03.321Z,136.08
2023-04-16T09:27:03.348Z,137.37
2023-04-16T09:28:03.415Z,138.52
2023-04-16T09:29:03.447Z,138.20
2023-04-16T09:30:03.474Z,138.22
2023-04-16T09:31:03.536Z,138.31
2023-04-16T09:32:03.659Z,137.96
2023-04-16T09:33:03.599Z,137.52
2023-04-16T09:34:03.655Z,135.68
2023-04-16T09:35:03.716Z,133.32
2023-04-16T09:36:03.752Z,134.30
2023-04-16T09:37:03.761Z,132.51
2023-04-16T09:38:03.814Z,129.81
2023-04-16T09:39:03.843Z,126.13
2023-04-16T09:40:03.970Z,121.81
2023-04-16T09:41:03.884Z,124.34
2023-04-16T09:42:03.924Z,128.87
2023-04-16T09:43:04.006Z,127.32
2023-04-16T09:44:04.072Z,127.61
2023-04-16T09:45:06.049Z,131.38
2023-04-16T09:46:08.278Z,134.49
2023-04-16T09:47:04.196Z,133.71
2023-04-16T09:48:04.338Z,133.48
2023-04-16T09:49:04.219Z,136.98
2023-04-16T09:50:04.226Z,141.95
2023-04-16T09:51:04.266Z,149.43
2023-04-16T09:52:04.266Z,148.73
2023-04-16T09:53:04.300Z,149.77
2023-04-16T09:54:04.297Z,145.14
2023-04-16T09:55:04.323Z,140.47
2023-04-16T09:56:04.357Z,141.97
2023-04-16T09:57:04.376Z,145.36
2023-04-16T09:58:04.406Z,147.94
2023-04-16T09:59:04.378Z,149.90
2023-04-16T10:00:04.413Z,145.75
2023-04-16T10:01:04.426Z,142.67
2023-04-16T10:02:14.484Z,142.99
2023-04-16T10:03:05.703Z,140.02
2023-04-16T10:04:04.586Z,139.73
2023-04-16T10:05:04.548Z,142.40
2023-04-16T10:06:04.562Z,137.43
2023-04-16T10:07:04.561Z,133.37
2023-04-16T10:08:04.564Z,132.58
2023-04-16T10:09:04.597Z,129.13
2023-04-16T10:10:04.604Z,133.97
2023-04-16T10:11:04.602Z,136.90
2023-04-16T10:12:04.638Z,134.40
2023-04-16T10:13:04.638Z,134.36
2023-04-16T10:14:04.633Z,130.89
2023-04-16T10:15:04.673Z,126.70
2023-04-16T10:16:04.683Z,121.99
2023-04-16T10:17:04.750Z,119.05
2023-04-16T10:18:04.761Z,118.17
2023-04-16T10:19:04.747Z,114.12
2023-04-16T10:20:04.803Z,111.62
2023-04-16T10:21:04.825Z,109.11
2023-04-16T10:22:05.000Z,101.67
2023-04-16T10:23:04.987Z,103.65
2023-04-16T10:24:05.055Z,104.74
2023-04-16T10:25:05.212Z,99.87
2023-04-16T10:26:05.283Z,106.12
2023-04-16T10:27:05.341Z,108.96
2023-04-16T10:28:05.403Z,108.74
2023-04-16T10:29:05.486Z,104.28
2023-04-16T10:30:05.627Z,103.13
2023-04-16T10:31:05.708Z,102.15
2023-04-16T10:32:05.701Z,104.40
2023-04-16T10:33:05.792Z,103.05
2023-04-16T10:34:05.802Z,101.55
2023-04-16T10:35:05.874Z,96.26
2023-04-16T10:36:07.842Z,101.71
2023-04-16T10:37:05.889Z,104.21
2023-04-16T10:38:06.803Z,103.49
2023-04-16T10:39:06.019Z,106.13
2023-04-16T10:40:05.984Z,109.56
2023-04-16T10:41:06.036Z,104.91
2023-04-16T10:42:06.070Z,102.22
2023-04-16T10:43:06.118Z,99.70
2023-04-16T10:44:06.098Z,99.23
2023-04-16T10:45:06.125Z,101.04
2023-04-16T10:46:06.168Z,100.50
2023-04-16T10:47:06.193Z,103.12
2023-04-16T10:48:06.205Z,103.77
2023-04-16T10:49:06.232Z,102.74
2023-04-16T10:50:06.274Z,98.14
2023-04-16T10:51:06.307Z,97.30
2023-04-16T10:52:06.346Z,98.96
2023-04-16T10:53:06.372Z,96.77
2023-04-16T10:54:06.408Z,98.35
2023-04-16T10:55:06.444Z,97.73
2023-04-16T10:56:06.443Z,94.79
2023-04-16T10:57:06.478Z,92.64
2023-04-16T10:58:06.510Z,97.37
2023-04-16T10:59:06.536Z,99.65
2023-04-16T11:00:06.597Z,102.68
2023-04-16T11:01:06.616Z,104.28
2023-04-16T11:02:06.668Z,102.36
2023-04-16T11:03:06.850Z,108.37
2023-04-16T11:04:06.810Z,104.01
2023-04-16T11:05:06.712Z,103.56
2023-04-16T11:06:06.737Z,100.68
2023-04-16T11:07:06.779Z,101.23
2023-04-16T11:08:06.809Z,95.33
2023-04-16T11:09:06.869Z,95.92
2023-04-16T11:10:06.947Z,95.29
2023-04-16T11:11:07.002Z,95.47
2023-04-16T11:12:07.080Z,100.61
2023-04-16T11:13:07.156Z,102.77
2023-04-16T11:14:07.317Z,97.86
2023-04-16T11:15:07.340Z,97.43
2023-04-16T11:16:07.405Z,98.32
2023-04-16T11:17:07.367Z,96.03
2023-04-16T11:18:07.535Z,93.78
2023-04-16T11:19:07.428Z,94.48
2023-04-16T11:20:19.290Z,93.77
2023-04-16T11:21:08.438Z,93.84
2023-04-16T11:22:07.410Z,95.85
2023-04-16T11:23:07.413Z,97.93
2023-04-16T11:24:07.417Z,102.72
2023-04-16T11:25:07.423Z,109.22
2023-04-16T11:26:07.454Z,108.98
2023-04-16T11:27:07.498Z,106.61
2023-04-16T11:28:07.493Z,110.56
2023-04-16T11:29:07.543Z,113.52
2023-04-16T11:30:07.612Z,107.19
2023-04-16T11:31:07.666Z,99.50
2023-04-16T11:32:07.591Z,94.33
2023-04-16T11:33:07.628Z,90.21
2023-04-16T11:34:07.637Z,86.69
2023-04-16T11:35:07.723Z,90.26
2023-04-16T11:36:07.788Z,89.53
2023-04-16T11:37:07.859Z,91.67
2023-04-16T11:38:07.973Z,92.87
2023-04-16T11:39:08.050Z,97.09
2023-04-16T11:40:07.996Z,96.84
2023-04-16T11:41:08.030Z,92.95
2023-04-16T11:42:08.090Z,91.81
2023-04-16T11:43:08.169Z,90.45
2023-04-16T11:44:08.187Z,95.35
2023-04-16T11:45:08.220Z,95.23
2023-04-16T11:46:20.470Z,98.27
2023-04-16T11:47:09.325Z,98.13
2023-04-16T11:48:11.078Z,98.36
2023-04-16T11:49:08.518Z,96.80
2023-04-16T11:50:08.312Z,92.14
2023-04-16T11:51:08.327Z,95.04
2023-04-16T11:52:08.333Z,95.86
2023-04-16T11:53:08.361Z,97.38
2023-04-16T11:54:11.083Z,95.27
2023-04-16T11:55:09.318Z,95.28
2023-04-16T11:56:08.324Z,96.11
2023-04-16T11:57:08.336Z,98.35
2023-04-16T11:58:08.333Z,104.47
2023-04-16T11:59:08.638Z,105.59
2023-04-16T12:01:08.303Z,99.88
2023-04-16T12:02:08.426Z,97.23
2023-04-16T12:03:08.573Z,99.46
2023-04-16T12:04:08.620Z,102.59
2023-04-16T12:05:08.340Z,103.52
2023-04-16T12:06:08.290Z,103.31
2023-04-16T12:07:08.318Z,107.67
2023-04-16T12:08:08.282Z,109.34
2023-04-16T12:09:08.545Z,108.15
2023-04-16T12:10:08.306Z,114.62
2023-04-16T12:11:08.288Z,114.20
2023-04-16T12:12:08.301Z,115.41
2023-04-16T12:13:08.286Z,115.97
2023-04-16T12:14:08.295Z,116.08
2023-04-16T12:15:08.284Z,112.95
2023-04-16T12:16:08.321Z,113.48
2023-04-16T12:17:08.348Z,113.76
2023-04-16T12:18:08.349Z,111.47
2023-04-16T12:19:08.470Z,112.06
2023-04-16T12:20:08.296Z,112.60
2023-04-16T12:21:08.272Z,119.48
2023-04-16T12:22:08.277Z,118.64
2023-04-16T12:23:08.261Z,115.04
2023-04-16T12:24:08.263Z,111.34
2023-04-16T12:25:08.290Z,107.86
2023-04-16T12:26:08.304Z,106.29
2023-04-16T12:27:08.295Z,108.12
2023-04-16T12:28:08.289Z,111.11
2023-04-16T12:29:08.452Z,109.63
2023-04-16T12:30:08.319Z,108.32
2023-04-16T12:31:08.501Z,109.76
2023-04-16T12:32:08.419Z,113.22